sensor_id;sensor_type;location;lat;lon;timestamp;pressure;altitude;pressure_sealevel;temperature;humidity
75913;BME280;64592;52.168;21.040;2023-09-30T00:01:47;100486.75;;;18.46;68.49
75913;BME280;64592;52.168;21.040;2023-09-30T00:06:51;100494.41;;;18.42;69.05
75913;BME280;64592;52.168;21.040;2023-09-30T00:11:52;100491.69;;;18.42;68.86
75913;BME280;64592;52.168;21.040;2023-09-30T00:16:55;100490.78;;;18.34;69.68
75913;BME280;64592;52.168;21.040;2023-09-30T00:21:58;100481.88;;;18.32;69.21
75913;BME280;64592;52.168;21.040;2023-09-30T00:27:01;100483.41;;;18.26;69.48
75913;BME280;64592;52.168;21.040;2023-09-30T00:32:03;100475.38;;;18.24;69.96
75913;BME280;64592;52.168;21.040;2023-09-30T00:37:06;100479.97;;;18.24;69.78
75913;BME280;64592;52.168;21.040;2023-09-30T00:42:08;100474.50;;;18.24;69.72
75913;BME280;64592;52.168;21.040;2023-09-30T00:47:09;100476.56;;;18.22;69.56
75913;BME280;64592;52.168;21.040;2023-09-30T00:52:13;100471.44;;;18.19;70.10
75913;BME280;64592;52.168;21.040;2023-09-30T00:57:14;100465.75;;;18.12;69.71
75913;BME280;64592;52.168;21.040;2023-09-30T01:02:17;100470.22;;;18.13;69.99
75913;BME280;64592;52.168;21.040;2023-09-30T01:07:20;100475.81;;;18.12;69.74
75913;BME280;64592;52.168;21.040;2023-09-30T01:12:22;100484.00;;;18.12;69.48
75913;BME280;64592;52.168;21.040;2023-09-30T01:17:24;100488.25;;;18.06;70.08
75913;BME280;64592;52.168;21.040;2023-09-30T01:22:27;100483.63;;;18.07;70.54
75913;BME280;64592;52.168;21.040;2023-09-30T01:27:30;100482.94;;;18.05;70.61
75913;BME280;64592;52.168;21.040;2023-09-30T01:32:32;100478.78;;;18.01;70.66
75913;BME280;64592;52.168;21.040;2023-09-30T01:37:35;100472.50;;;18.00;71.13
75913;BME280;64592;52.168;21.040;2023-09-30T01:42:37;100461.75;;;17.99;70.44
75913;BME280;64592;52.168;21.040;2023-09-30T01:47:38;100460.34;;;17.95;70.79
75913;BME280;64592;52.168;21.040;2023-09-30T01:52:41;100465.13;;;17.93;70.82
75913;BME280;64592;52.168;21.040;2023-09-30T01:57:43;100463.72;;;17.89;71.37
75913;BME280;64592;52.168;21.040;2023-09-30T02:02:45;100451.09;;;17.88;70.77
75913;BME280;64592;52.168;21.040;2023-09-30T02:07:48;100438.16;;;17.90;70.74
75913;BME280;64592;52.168;21.040;2023-09-30T02:12:49;100456.56;;;17.88;70.99
75913;BME280;64592;52.168;21.040;2023-09-30T02:17:51;100444.28;;;17.83;71.10
75913;BME280;64592;52.168;21.040;2023-09-30T02:22:54;100440.19;;;17.88;70.99
75913;BME280;64592;52.168;21.040;2023-09-30T02:27:56;100444.31;;;17.92;71.07
75913;BME280;64592;52.168;21.040;2023-09-30T02:32:58;100447.06;;;17.92;70.80
75913;BME280;64592;52.168;21.040;2023-09-30T02:38:01;100442.75;;;17.89;70.92
75913;BME280;64592;52.168;21.040;2023-09-30T02:43:03;100458.59;;;17.86;71.41
75913;BME280;64592;52.168;21.040;2023-09-30T02:48:05;100445.44;;;17.81;71.62
75913;BME280;64592;52.168;21.040;2023-09-30T02:53:10;100442.00;;;17.79;71.30
75913;BME280;64592;52.168;21.040;2023-09-30T02:58:12;100449.66;;;17.75;71.78
75913;BME280;64592;52.168;21.040;2023-09-30T03:03:15;100449.50;;;17.77;71.43
75913;BME280;64592;52.168;21.040;2023-09-30T03:08:19;100441.63;;;17.74;72.08
75913;BME280;64592;52.168;21.040;2023-09-30T03:13:22;100427.69;;;17.77;71.76
75913;BME280;64592;52.168;21.040;2023-09-30T03:18:25;100434.47;;;17.73;72.00
75913;BME280;64592;52.168;21.040;2023-09-30T03:23:29;100431.22;;;17.69;72.03
75913;BME280;64592;52.168;21.040;2023-09-30T03:28:31;100429.81;;;17.65;72.69
75913;BME280;64592;52.168;21.040;2023-09-30T03:33:33;100429.81;;;17.65;72.76
75913;BME280;64592;52.168;21.040;2023-09-30T03:38:36;100433.53;;;17.64;72.74
75913;BME280;64592;52.168;21.040;2023-09-30T03:43:39;100424.50;;;17.64;73.07
75913;BME280;64592;52.168;21.040;2023-09-30T03:48:42;100422.63;;;17.64;73.26
75913;BME280;64592;52.168;21.040;2023-09-30T03:53:46;100431.84;;;17.63;72.88
75913;BME280;64592;52.168;21.040;2023-09-30T03:58:48;100424.81;;;17.61;73.11
75913;BME280;64592;52.168;21.040;2023-09-30T04:03:50;100433.28;;;17.58;73.41
75913;BME280;64592;52.168;21.040;2023-09-30T04:08:56;100437.88;;;17.57;73.26
75913;BME280;64592;52.168;21.040;2023-09-30T04:13:59;100434.31;;;17.57;73.67
75913;BME280;64592;52.168;21.040;2023-09-30T04:19:02;100430.91;;;17.55;73.67
75913;BME280;64592;52.168;21.040;2023-09-30T04:24:05;100429.50;;;17.51;74.27
75913;BME280;64592;52.168;21.040;2023-09-30T04:29:07;100433.06;;;17.51;73.80
75913;BME280;64592;52.168;21.040;2023-09-30T04:34:11;100428.63;;;17.50;74.04
75913;BME280;64592;52.168;21.040;2023-09-30T04:39:15;100431.53;;;17.49;73.67
75913;BME280;64592;52.168;21.040;2023-09-30T04:44:16;100419.28;;;17.53;73.94
75913;BME280;64592;52.168;21.040;2023-09-30T04:49:18;100421.88;;;17.54;73.65
75913;BME280;64592;52.168;21.040;2023-09-30T04:54:21;100422.38;;;17.58;73.71
75913;BME280;64592;52.168;21.040;2023-09-30T04:59:22;100423.59;;;17.55;74.08
75913;BME280;64592;52.168;21.040;2023-09-30T05:04:25;100419.13;;;17.54;74.17
75913;BME280;64592;52.168;21.040;2023-09-30T05:09:28;100418.44;;;17.52;74.18
75913;BME280;64592;52.168;21.040;2023-09-30T05:14:31;100427.31;;;17.54;74.61
75913;BME280;64592;52.168;21.040;2023-09-30T05:19:33;100429.91;;;17.56;74.33
75913;BME280;64592;52.168;21.040;2023-09-30T05:24:38;100434.50;;;17.55;74.68
75913;BME280;64592;52.168;21.040;2023-09-30T05:29:40;100440.81;;;17.56;74.69
75913;BME280;64592;52.168;21.040;2023-09-30T05:34:41;100448.28;;;17.54;75.27
75913;BME280;64592;52.168;21.040;2023-09-30T05:39:46;100442.97;;;17.52;75.14
75913;BME280;64592;52.168;21.040;2023-09-30T05:44:49;100455.91;;;17.50;75.92
75913;BME280;64592;52.168;21.040;2023-09-30T05:49:51;100452.16;;;17.51;76.09
75913;BME280;64592;52.168;21.040;2023-09-30T05:54:54;100460.34;;;17.51;76.52
75913;BME280;64592;52.168;21.040;2023-09-30T05:59:56;100471.56;;;17.48;77.08
75913;BME280;64592;52.168;21.040;2023-09-30T06:04:57;100471.72;;;17.46;77.80
75913;BME280;64592;52.168;21.040;2023-09-30T06:10:00;100478.34;;;17.44;78.62
75913;BME280;64592;52.168;21.040;2023-09-30T06:15:04;100486.66;;;17.42;79.10
75913;BME280;64592;52.168;21.040;2023-09-30T06:20:07;100496.31;;;17.37;81.19
75913;BME280;64592;52.168;21.040;2023-09-30T06:25:18;100495.47;;;17.36;81.73
75913;BME280;64592;52.168;21.040;2023-09-30T06:30:20;100492.88;;;17.35;83.45
75913;BME280;64592;52.168;21.040;2023-09-30T06:35:21;100496.47;;;17.35;84.55
75913;BME280;64592;52.168;21.040;2023-09-30T06:40:25;100495.31;;;17.38;86.65
75913;BME280;64592;52.168;21.040;2023-09-30T06:45:26;100506.22;;;17.38;88.56
75913;BME280;64592;52.168;21.040;2023-09-30T06:50:28;100510.34;;;17.42;89.89
75913;BME280;64592;52.168;21.040;2023-09-30T06:55:33;100519.22;;;17.44;92.10
75913;BME280;64592;52.168;21.040;2023-09-30T07:00:35;100515.34;;;17.46;93.16
75913;BME280;64592;52.168;21.040;2023-09-30T07:05:36;100527.78;;;17.49;94.06
75913;BME280;64592;52.168;21.040;2023-09-30T07:10:39;100537.53;;;17.52;95.14
75913;BME280;64592;52.168;21.040;2023-09-30T07:15:42;100534.09;;;17.50;96.17
75913;BME280;64592;52.168;21.040;2023-09-30T07:20:43;100540.59;;;17.49;96.42
75913;BME280;64592;52.168;21.040;2023-09-30T07:25:46;100537.53;;;17.52;96.63
75913;BME280;64592;52.168;21.040;2023-09-30T07:30:49;100553.72;;;17.53;97.44
75913;BME280;64592;52.168;21.040;2023-09-30T07:35:50;100558.84;;;17.56;98.22
75913;BME280;64592;52.168;21.040;2023-09-30T07:40:53;100552.56;;;17.56;98.89
75913;BME280;64592;52.168;21.040;2023-09-30T07:45:55;100553.59;;;17.55;99.28
75913;BME280;64592;52.168;21.040;2023-09-30T07:50:57;100552.56;;;17.56;99.82
75913;BME280;64592;52.168;21.040;2023-09-30T07:56:00;100553.09;;;17.59;99.79
75913;BME280;64592;52.168;21.040;2023-09-30T08:01:01;100550.13;;;17.62;100.00
75913;BME280;64592;52.168;21.040;2023-09-30T08:06:07;100553.50;;;17.64;100.00
75913;BME280;64592;52.168;21.040;2023-09-30T08:11:10;100559.28;;;17.79;100.00
75913;BME280;64592;52.168;21.040;2023-09-30T08:16:12;100562.06;;;17.87;100.00
75913;BME280;64592;52.168;21.040;2023-09-30T08:21:14;100566.75;;;17.95;100.00
75913;BME280;64592;52.168;21.040;2023-09-30T08:26:17;100564.41;;;18.00;100.00
75913;BME280;64592;52.168;21.040;2023-09-30T08:31:19;100567.81;;;18.02;100.00
75913;BME280;64592;52.168;21.040;2023-09-30T08:36:22;100567.53;;;18.05;100.00
75913;BME280;64592;52.168;21.040;2023-09-30T08:41:32;100568.91;;;18.09;100.00
75913;BME280;64592;52.168;21.040;2023-09-30T08:46:34;100570.47;;;18.11;100.00
75913;BME280;64592;52.168;21.040;2023-09-30T08:51:36;100573.03;;;18.13;100.00
75913;BME280;64592;52.168;21.040;2023-09-30T08:56:41;100569.44;;;18.12;100.00
75913;BME280;64592;52.168;21.040;2023-09-30T09:01:46;100575.44;;;18.16;100.00
75913;BME280;64592;52.168;21.040;2023-09-30T09:06:48;100578.72;;;18.19;100.00
75913;BME280;64592;52.168;21.040;2023-09-30T09:11:51;100580.59;;;18.19;100.00
75913;BME280;64592;52.168;21.040;2023-09-30T09:16:54;100592.38;;;18.19;100.00
75913;BME280;64592;52.168;21.040;2023-09-30T09:21:58;100591.34;;;18.20;100.00
75913;BME280;64592;52.168;21.040;2023-09-30T09:27:05;100590.97;;;18.15;100.00
75913;BME280;64592;52.168;21.040;2023-09-30T09:32:09;100595.59;;;18.15;100.00
75913;BME280;64592;52.168;21.040;2023-09-30T09:37:15;100595.03;;;18.11;100.00
75913;BME280;64592;52.168;21.040;2023-09-30T09:42:29;100597.22;;;18.08;100.00
75913;BME280;64592;52.168;21.040;2023-09-30T09:47:32;100596.91;;;18.11;100.00
75913;BME280;64592;52.168;21.040;2023-09-30T09:52:34;100608.50;;;18.13;100.00
75913;BME280;64592;52.168;21.040;2023-09-30T09:57:38;100615.69;;;18.14;100.00
75913;BME280;64592;52.168;21.040;2023-09-30T10:02:41;100621.81;;;18.16;100.00
75913;BME280;64592;52.168;21.040;2023-09-30T10:07:49;100626.75;;;18.12;100.00
75913;BME280;64592;52.168;21.040;2023-09-30T10:12:53;100627.06;;;18.09;100.00
75913;BME280;64592;52.168;21.040;2023-09-30T10:17:57;100632.69;;;18.08;100.00
75913;BME280;64592;52.168;21.040;2023-09-30T10:23:20;100643.91;;;18.05;100.00
75913;BME280;64592;52.168;21.040;2023-09-30T10:28:38;100654.03;;;17.95;100.00
75913;BME280;64592;52.168;21.040;2023-09-30T10:39:53;100662.47;;;17.83;100.00
75913;BME280;64592;52.168;21.040;2023-09-30T10:44:57;100675.00;;;17.76;100.00
75913;BME280;64592;52.168;21.040;2023-09-30T10:49:59;100687.22;;;17.72;100.00
75913;BME280;64592;52.168;21.040;2023-09-30T10:55:04;100686.53;;;17.70;100.00
75913;BME280;64592;52.168;21.040;2023-09-30T11:00:09;100693.63;;;17.63;100.00
75913;BME280;64592;52.168;21.040;2023-09-30T11:05:12;100700.09;;;17.62;100.00
75913;BME280;64592;52.168;21.040;2023-09-30T11:10:16;100713.38;;;17.65;100.00
75913;BME280;64592;52.168;21.040;2023-09-30T11:15:19;100719.28;;;17.61;100.00
75913;BME280;64592;52.168;21.040;2023-09-30T11:20:21;100717.16;;;17.55;100.00
75913;BME280;64592;52.168;21.040;2023-09-30T11:25:23;100731.47;;;17.57;100.00
75913;BME280;64592;52.168;21.040;2023-09-30T11:30:26;100736.28;;;17.45;100.00
75913;BME280;64592;52.168;21.040;2023-09-30T11:35:28;100741.94;;;17.34;100.00
75913;BME280;64592;52.168;21.040;2023-09-30T11:40:30;100739.78;;;17.28;99.91
75913;BME280;64592;52.168;21.040;2023-09-30T11:45:34;100739.50;;;17.31;100.00
75913;BME280;64592;52.168;21.040;2023-09-30T11:50:46;100747.78;;;17.39;98.84
75913;BME280;64592;52.168;21.040;2023-09-30T11:55:48;100740.59;;;17.48;97.63
75913;BME280;64592;52.168;21.040;2023-09-30T12:00:53;100740.59;;;17.48;95.46
75913;BME280;64592;52.168;21.040;2023-09-30T12:05:55;100740.13;;;17.52;95.83
75913;BME280;64592;52.168;21.040;2023-09-30T12:10:56;100732.06;;;17.60;94.16
75913;BME280;64592;52.168;21.040;2023-09-30T12:16:01;100736.16;;;17.74;92.92
75913;BME280;64592;52.168;21.040;2023-09-30T12:21:03;100745.06;;;17.94;90.76
75913;BME280;64592;52.168;21.040;2023-09-30T12:26:07;100743.78;;;17.98;90.04
75913;BME280;64592;52.168;21.040;2023-09-30T12:31:10;100750.34;;;18.05;90.28
75913;BME280;64592;52.168;21.040;2023-09-30T12:36:11;100755.56;;;18.16;88.17
75913;BME280;64592;52.168;21.040;2023-09-30T12:41:14;100749.63;;;18.38;87.62
75913;BME280;64592;52.168;21.040;2023-09-30T12:46:17;100743.72;;;18.60;85.07
75913;BME280;64592;52.168;21.040;2023-09-30T12:51:18;100749.25;;;18.69;83.07
75913;BME280;64592;52.168;21.040;2023-09-30T12:56:20;100743.56;;;18.80;83.75
75913;BME280;64592;52.168;21.040;2023-09-30T13:01:23;100752.19;;;18.93;82.51
75913;BME280;64592;52.168;21.040;2023-09-30T13:06:25;100747.84;;;19.08;82.86
75913;BME280;64592;52.168;21.040;2023-09-30T13:11:26;100747.63;;;19.27;81.25
75913;BME280;64592;52.168;21.040;2023-09-30T13:16:29;100744.38;;;19.58;78.65
75913;BME280;64592;52.168;21.040;2023-09-30T13:21:31;100746.44;;;20.06;75.59
75913;BME280;64592;52.168;21.040;2023-09-30T13:26:33;100747.56;;;20.53;72.37
75913;BME280;64592;52.168;21.040;2023-09-30T13:31:36;100734.72;;;20.78;68.87
75913;BME280;64592;52.168;21.040;2023-09-30T13:36:38;100734.72;;;21.03;66.79
75913;BME280;64592;52.168;21.040;2023-09-30T13:41:40;100733.13;;;21.33;62.32
75913;BME280;64592;52.168;21.040;2023-09-30T13:46:43;100736.59;;;21.65;59.35
75913;BME280;64592;52.168;21.040;2023-09-30T13:51:44;100728.59;;;21.87;56.14
75913;BME280;64592;52.168;21.040;2023-09-30T13:56:46;100733.75;;;21.90;51.61
75913;BME280;64592;52.168;21.040;2023-09-30T14:01:49;100732.72;;;21.91;49.98
75913;BME280;64592;52.168;21.040;2023-09-30T14:06:51;100735.19;;;21.78;50.70
75913;BME280;64592;52.168;21.040;2023-09-30T14:11:53;100741.78;;;21.60;48.57
75913;BME280;64592;52.168;21.040;2023-09-30T14:16:56;100743.50;;;21.61;49.07
75913;BME280;64592;52.168;21.040;2023-09-30T14:21:58;100746.84;;;21.72;46.69
75913;BME280;64592;52.168;21.040;2023-09-30T14:27:01;100737.16;;;21.61;47.41
75913;BME280;64592;52.168;21.040;2023-09-30T14:32:04;100740.69;;;21.30;47.71
75913;BME280;64592;52.168;21.040;2023-09-30T14:37:07;100738.97;;;20.97;49.05
75913;BME280;64592;52.168;21.040;2023-09-30T14:42:08;100751.19;;;20.70;49.55
75913;BME280;64592;52.168;21.040;2023-09-30T14:47:11;100753.22;;;20.44;50.03
75913;BME280;64592;52.168;21.040;2023-09-30T14:52:13;100768.19;;;20.15;50.51
75913;BME280;64592;52.168;21.040;2023-09-30T14:57:15;100762.50;;;20.01;51.17
75913;BME280;64592;52.168;21.040;2023-09-30T15:02:21;100769.28;;;19.81;51.85
75913;BME280;64592;52.168;21.040;2023-09-30T15:07:23;100777.44;;;19.72;51.65
75913;BME280;64592;52.168;21.040;2023-09-30T15:12:25;100784.75;;;19.64;51.93
75913;BME280;64592;52.168;21.040;2023-09-30T15:17:28;100786.63;;;19.55;53.15
75913;BME280;64592;52.168;21.040;2023-09-30T15:22:31;100784.50;;;19.49;52.26
75913;BME280;64592;52.168;21.040;2023-09-30T15:27:33;100798.44;;;19.38;53.48
75913;BME280;64592;52.168;21.040;2023-09-30T15:32:36;100801.97;;;19.30;53.92
75913;BME280;64592;52.168;21.040;2023-09-30T15:37:37;100797.16;;;19.24;54.05
75913;BME280;64592;52.168;21.040;2023-09-30T15:42:39;100802.41;;;19.18;54.61
75913;BME280;64592;52.168;21.040;2023-09-30T15:47:42;100810.44;;;19.19;55.09
75913;BME280;64592;52.168;21.040;2023-09-30T15:52:44;100810.41;;;19.11;54.80
75913;BME280;64592;52.168;21.040;2023-09-30T15:57:46;100825.53;;;19.06;55.92
75913;BME280;64592;52.168;21.040;2023-09-30T16:02:49;100831.66;;;18.99;56.45
75913;BME280;64592;52.168;21.040;2023-09-30T16:07:51;100830.41;;;18.94;57.02
75913;BME280;64592;52.168;21.040;2023-09-30T16:12:52;100846.72;;;18.86;55.93
75913;BME280;64592;52.168;21.040;2023-09-30T16:17:55;100849.09;;;18.81;56.59
75913;BME280;64592;52.168;21.040;2023-09-30T16:22:57;100851.59;;;18.74;56.22
75913;BME280;64592;52.168;21.040;2023-09-30T16:27:59;100863.97;;;18.69;57.32
75913;BME280;64592;52.168;21.040;2023-09-30T16:33:02;100873.13;;;18.59;56.97
75913;BME280;64592;52.168;21.040;2023-09-30T16:38:04;100873.88;;;18.52;58.06
75913;BME280;64592;52.168;21.040;2023-09-30T16:43:05;100878.38;;;18.43;59.18
75913;BME280;64592;52.168;21.040;2023-09-30T16:48:08;100879.56;;;18.31;59.15
75913;BME280;64592;52.168;21.040;2023-09-30T16:53:11;100880.66;;;18.20;59.45
75913;BME280;64592;52.168;21.040;2023-09-30T16:58:12;100881.09;;;18.16;59.38
75913;BME280;64592;52.168;21.040;2023-09-30T17:03:15;100895.50;;;18.08;59.25
75913;BME280;64592;52.168;21.040;2023-09-30T17:08:17;100893.38;;;18.02;60.22
75913;BME280;64592;52.168;21.040;2023-09-30T17:13:19;100889.53;;;17.95;60.94
75913;BME280;64592;52.168;21.040;2023-09-30T17:18:21;100894.88;;;17.87;60.36
75913;BME280;64592;52.168;21.040;2023-09-30T17:23:23;100896.78;;;17.77;61.01
75913;BME280;64592;52.168;21.040;2023-09-30T17:28:25;100905.13;;;17.66;61.05
75913;BME280;64592;52.168;21.040;2023-09-30T17:33:28;100914.03;;;17.58;62.04
75913;BME280;64592;52.168;21.040;2023-09-30T17:38:31;100902.56;;;17.45;61.72
75913;BME280;64592;52.168;21.040;2023-09-30T17:43:33;100906.63;;;17.41;61.39
75913;BME280;64592;52.168;21.040;2023-09-30T17:48:37;100916.06;;;17.37;61.89
75913;BME280;64592;52.168;21.040;2023-09-30T17:53:39;100923.84;;;17.32;61.89
75913;BME280;64592;52.168;21.040;2023-09-30T17:58:41;100924.84;;;17.31;61.88
75913;BME280;64592;52.168;21.040;2023-09-30T18:03:44;100923.13;;;17.30;61.56
75913;BME280;64592;52.168;21.040;2023-09-30T18:08:46;100931.44;;;17.28;61.23
75913;BME280;64592;52.168;21.040;2023-09-30T18:13:48;100936.31;;;17.25;62.43
75913;BME280;64592;52.168;21.040;2023-09-30T18:18:51;100933.59;;;17.25;62.66
75913;BME280;64592;52.168;21.040;2023-09-30T18:23:52;100928.13;;;17.15;62.80
75913;BME280;64592;52.168;21.040;2023-09-30T18:28:54;100931.31;;;17.11;62.75
75913;BME280;64592;52.168;21.040;2023-09-30T18:33:58;100933.31;;;17.08;63.62
75913;BME280;64592;52.168;21.040;2023-09-30T18:38:59;100923.41;;;17.07;63.40
75913;BME280;64592;52.168;21.040;2023-09-30T18:44:01;100940.34;;;17.01;64.02
75913;BME280;64592;52.168;21.040;2023-09-30T18:49:04;100930.00;;;16.95;64.29
75913;BME280;64592;52.168;21.040;2023-09-30T18:54:07;100924.84;;;16.92;65.11
75913;BME280;64592;52.168;21.040;2023-09-30T18:59:09;100934.44;;;16.87;64.66
75913;BME280;64592;52.168;21.040;2023-09-30T19:04:13;100928.41;;;16.83;65.13
75913;BME280;64592;52.168;21.040;2023-09-30T19:09:15;100940.72;;;16.78;65.45
75913;BME280;64592;52.168;21.040;2023-09-30T19:14:17;100953.63;;;16.66;65.60
75913;BME280;64592;52.168;21.040;2023-09-30T19:19:20;100944.13;;;16.60;65.70
75913;BME280;64592;52.168;21.040;2023-09-30T19:24:22;100945.84;;;16.61;65.38
75913;BME280;64592;52.168;21.040;2023-09-30T19:29:23;100951.28;;;16.52;65.90
75913;BME280;64592;52.168;21.040;2023-09-30T19:34:26;100954.34;;;16.38;66.36
75913;BME280;64592;52.168;21.040;2023-09-30T19:39:28;100963.22;;;16.30;66.59
75913;BME280;64592;52.168;21.040;2023-09-30T19:44:30;100958.88;;;16.18;67.05
75913;BME280;64592;52.168;21.040;2023-09-30T19:49:34;100969.31;;;16.13;67.39
75913;BME280;64592;52.168;21.040;2023-09-30T19:54:37;100977.41;;;16.03;68.08
75913;BME280;64592;52.168;21.040;2023-09-30T19:59:40;100975.69;;;16.02;68.23
75913;BME280;64592;52.168;21.040;2023-09-30T20:04:44;100971.06;;;15.93;68.31
75913;BME280;64592;52.168;21.040;2023-09-30T20:09:46;100988.66;;;15.89;68.46
75913;BME280;64592;52.168;21.040;2023-09-30T20:14:50;100990.50;;;15.88;68.43
75913;BME280;64592;52.168;21.040;2023-09-30T20:19:53;100993.63;;;15.84;68.77
75913;BME280;64592;52.168;21.040;2023-09-30T20:24:55;100998.47;;;15.80;69.51
75913;BME280;64592;52.168;21.040;2023-09-30T20:30:00;100997.59;;;15.80;69.27
75913;BME280;64592;52.168;21.040;2023-09-30T20:35:03;100992.97;;;15.71;69.47
75913;BME280;64592;52.168;21.040;2023-09-30T20:40:07;100994.47;;;15.64;70.08
75913;BME280;64592;52.168;21.040;2023-09-30T20:45:11;100994.75;;;15.61;69.92
75913;BME280;64592;52.168;21.040;2023-09-30T20:50:15;100997.66;;;15.48;70.71
75913;BME280;64592;52.168;21.040;2023-09-30T20:55:17;101008.44;;;15.38;71.08
75913;BME280;64592;52.168;21.040;2023-09-30T21:00:18;101004.50;;;15.31;70.92
75913;BME280;64592;52.168;21.040;2023-09-30T21:05:22;101004.81;;;15.17;71.67
75913;BME280;64592;52.168;21.040;2023-09-30T21:10:24;101018.75;;;15.12;71.91
75913;BME280;64592;52.168;21.040;2023-09-30T21:15:25;101012.06;;;14.96;72.90
75913;BME280;64592;52.168;21.040;2023-09-30T21:20:28;101011.94;;;14.86;73.22
75913;BME280;64592;52.168;21.040;2023-09-30T21:25:30;101020.47;;;14.82;73.70
75913;BME280;64592;52.168;21.040;2023-09-30T21:30:35;101030.84;;;14.76;73.62
75913;BME280;64592;52.168;21.040;2023-09-30T21:35:38;101032.31;;;14.69;73.76
75913;BME280;64592;52.168;21.040;2023-09-30T21:40:40;101033.34;;;14.57;74.15
75913;BME280;64592;52.168;21.040;2023-09-30T21:45:42;101048.13;;;14.53;74.45
75913;BME280;64592;52.168;21.040;2023-09-30T21:50:45;101034.31;;;14.45;75.28
75913;BME280;64592;52.168;21.040;2023-09-30T21:55:47;101036.53;;;14.40;75.30
75913;BME280;64592;52.168;21.040;2023-09-30T22:00:49;101027.66;;;14.38;75.31
75913;BME280;64592;52.168;21.040;2023-09-30T22:05:56;101025.16;;;14.24;76.05
75913;BME280;64592;52.168;21.040;2023-09-30T22:10:59;101032.06;;;14.17;76.37
75913;BME280;64592;52.168;21.040;2023-09-30T22:16:00;101028.59;;;14.04;76.41
75913;BME280;64592;52.168;21.040;2023-09-30T22:21:04;101032.28;;;13.91;77.05
75913;BME280;64592;52.168;21.040;2023-09-30T22:26:05;101023.78;;;13.85;77.37
75913;BME280;64592;52.168;21.040;2023-09-30T22:31:08;101024.50;;;13.76;77.91
75913;BME280;64592;52.168;21.040;2023-09-30T22:36:11;101015.59;;;13.63;78.61
75913;BME280;64592;52.168;21.040;2023-09-30T22:41:12;101013.91;;;13.49;79.30
75913;BME280;64592;52.168;21.040;2023-09-30T22:46:15;101027.34;;;13.39;79.73
75913;BME280;64592;52.168;21.040;2023-09-30T22:51:18;101028.69;;;13.45;79.70
75913;BME280;64592;52.168;21.040;2023-09-30T22:56:20;101019.69;;;13.33;80.08
75913;BME280;64592;52.168;21.040;2023-09-30T23:01:23;101028.25;;;13.27;80.58
75913;BME280;64592;52.168;21.040;2023-09-30T23:06:27;101042.50;;;13.18;80.85
75913;BME280;64592;52.168;21.040;2023-09-30T23:11:29;101040.53;;;13.20;81.09
75913;BME280;64592;52.168;21.040;2023-09-30T23:16:31;101042.16;;;13.23;81.07
75913;BME280;64592;52.168;21.040;2023-09-30T23:21:34;101041.75;;;13.16;81.47
75913;BME280;64592;52.168;21.040;2023-09-30T23:26:37;101043.25;;;13.07;81.75
75913;BME280;64592;52.168;21.040;2023-09-30T23:31:39;101045.75;;;13.10;81.63
75913;BME280;64592;52.168;21.040;2023-09-30T23:36:44;101050.41;;;13.08;81.75
75913;BME280;64592;52.168;21.040;2023-09-30T23:41:47;101050.63;;;13.05;81.65
75913;BME280;64592;52.168;21.040;2023-09-30T23:46:49;101047.75;;;12.96;82.43
75913;BME280;64592;52.168;21.040;2023-09-30T23:51:54;101044.66;;;12.89;82.48
75913;BME280;64592;52.168;21.040;2023-09-30T23:56:55;101041.41;;;12.84;82.77
